Time;durP1;ratioP1;P1;durP2;ratioP2;P2;SDS_P1;SDS_P2;PMS_P1;PMS_P2;Temp;Humidity;BMP_temperature;BMP_pressure;BME280_temperature;BME280_humidity;BME280_pressure;Samples;Min_cycle;Max_cycle;Signal;HPM_P1;HPM_P2
2024/02/27 00:00:23;;;;;;;4.63;3.08;;;;;;;;;;6184936;23;20460;-90
2024/02/27 00:02:48;;;;;;;8.00;3.63;;;;;;;;;;6184849;23;20024;-90
2024/02/27 00:05:13;;;;;;;4.72;2.80;;;;;;;;;;6184366;23;19993;-90
2024/02/27 00:07:38;;;;;;;9.70;2.78;;;;;;;;;;6158434;23;20008;-90
2024/02/27 00:10:04;;;;;;;6.82;2.70;;;;;;;;;;6184736;23;20005;-90
2024/02/27 00:12:29;;;;;;;4.65;2.95;;;;;;;;;;6158708;23;19993;-90
2024/02/27 00:14:54;;;;;;;6.13;3.17;;;;;;;;;;6183916;23;20001;-90
2024/02/27 00:17:22;;;;;;;7.07;3.05;;;;;;;;;;6184649;23;19997;-90
2024/02/27 00:19:47;;;;;;;9.65;2.92;;;;;;;;;;6184795;23;20051;-89
2024/02/27 00:22:13;;;;;;;5.37;3.33;;;;;;;;;;6184560;23;20424;-90
2024/02/27 00:24:38;;;;;;;4.00;3.07;;;;;;;;;;6184257;23;20223;-90
2024/02/27 00:27:03;;;;;;;6.05;3.00;;;;;;;;;;6184716;23;20225;-90
2024/02/27 00:29:31;;;;;;;7.45;2.72;;;;;;;;;;6184210;23;20013;-90
2024/02/27 00:31:57;;;;;;;5.40;2.85;;;;;;;;;;6184572;23;19997;-89
2024/02/27 00:34:22;;;;;;;7.05;3.40;;;;;;;;;;6184070;23;20324;-91
2024/02/27 00:36:47;;;;;;;4.97;2.90;;;;;;;;;;6184737;23;20346;-89
2024/02/27 00:39:12;;;;;;;6.05;3.25;;;;;;;;;;6184537;23;20681;-89
2024/02/27 00:41:38;;;;;;;9.03;3.17;;;;;;;;;;6184756;23;20075;-90
2024/02/27 00:44:05;;;;;;;6.28;3.53;;;;;;;;;;6183944;23;20586;-89
2024/02/27 00:46:31;;;;;;;7.22;3.15;;;;;;;;;;6184418;23;20027;-89
2024/02/27 00:48:56;;;;;;;5.18;3.10;;;;;;;;;;6184367;23;20415;-90
2024/02/27 00:51:21;;;;;;;7.80;3.27;;;;;;;;;;6158018;23;20424;-90
2024/02/27 00:53:46;;;;;;;7.03;3.70;;;;;;;;;;6183870;23;20214;-90
2024/02/27 00:56:11;;;;;;;6.18;3.45;;;;;;;;;;6157745;23;20230;-89
2024/02/27 00:58:37;;;;;;;6.38;2.70;;;;;;;;;;6184313;23;20003;-90
2024/02/27 01:01:02;;;;;;;8.68;3.45;;;;;;;;;;6184538;23;20408;-90
2024/02/27 01:03:28;;;;;;;5.93;3.33;;;;;;;;;;6184524;23;20304;-90
2024/02/27 01:05:53;;;;;;;5.47;3.25;;;;;;;;;;6183300;23;19997;-89
2024/02/27 01:08:18;;;;;;;6.28;4.07;;;;;;;;;;6184021;23;20000;-90
2024/02/27 01:10:43;;;;;;;6.32;3.50;;;;;;;;;;6184226;23;20592;-90
2024/02/27 01:13:09;;;;;;;9.73;4.50;;;;;;;;;;6184316;23;20371;-90
2024/02/27 01:15:34;;;;;;;6.53;4.45;;;;;;;;;;6157688;23;20000;-89
2024/02/27 01:17:59;;;;;;;6.65;4.00;;;;;;;;;;6184436;23;20025;-89
2024/02/27 01:20:24;;;;;;;15.65;6.10;;;;;;;;;;6184213;23;19989;-90
2024/02/27 01:22:50;;;;;;;7.30;3.55;;;;;;;;;;6158005;23;20001;-90
2024/02/27 01:25:16;;;;;;;6.32;3.95;;;;;;;;;;6183936;23;20482;-90
2024/02/27 01:27:41;;;;;;;7.13;4.00;;;;;;;;;;6157914;23;20005;-91
2024/02/27 01:30:06;;;;;;;8.57;4.13;;;;;;;;;;6184503;23;20005;-90
2024/02/27 01:32:32;;;;;;;8.68;4.20;;;;;;;;;;6158107;23;20369;-90
2024/02/27 01:34:57;;;;;;;6.47;3.92;;;;;;;;;;6184523;23;20005;-89
2024/02/27 01:37:22;;;;;;;5.88;4.10;;;;;;;;;;6156947;23;19993;-90
2024/02/27 01:39:48;;;;;;;8.50;4.25;;;;;;;;;;6157897;23;20320;-90
2024/02/27 01:42:13;;;;;;;6.13;3.90;;;;;;;;;;6157981;23;20048;-89
2024/02/27 01:44:43;;;;;;;8.30;4.18;;;;;;;;;;6183889;23;20251;-90
2024/02/27 01:47:08;;;;;;;5.25;4.03;;;;;;;;;;6127267;23;20480;-90
2024/02/27 01:49:34;;;;;;;6.63;4.43;;;;;;;;;;6127765;23;20033;-89
2024/02/27 01:51:59;;;;;;;9.32;4.70;;;;;;;;;;6154019;23;20004;-90
2024/02/27 01:54:26;;;;;;;10.63;4.63;;;;;;;;;;6128540;23;20335;-90
2024/02/27 01:56:52;;;;;;;9.40;4.70;;;;;;;;;;6130004;23;19993;-90
2024/02/27 01:59:19;;;;;;;11.35;4.97;;;;;;;;;;6155540;23;19998;-91
2024/02/27 02:01:44;;;;;;;8.95;4.75;;;;;;;;;;6129912;23;20005;-90
2024/02/27 02:04:11;;;;;;;10.38;5.45;;;;;;;;;;6156042;23;19997;-90
2024/02/27 02:06:37;;;;;;;9.68;4.63;;;;;;;;;;6155944;23;20006;-89
2024/02/27 02:09:02;;;;;;;7.95;4.32;;;;;;;;;;6129304;23;20093;-90
2024/02/27 02:11:27;;;;;;;8.33;4.50;;;;;;;;;;6129581;23;20432;-91
2024/02/27 02:13:53;;;;;;;6.13;4.22;;;;;;;;;;6155849;23;20227;-90
2024/02/27 02:16:18;;;;;;;5.45;3.97;;;;;;;;;;6155976;23;20021;-90
2024/02/27 02:18:43;;;;;;;8.47;4.83;;;;;;;;;;6129284;23;20009;-90
2024/02/27 02:21:08;;;;;;;7.35;4.00;;;;;;;;;;6155898;23;20220;-91
2024/02/27 02:23:34;;;;;;;9.20;5.20;;;;;;;;;;6155747;23;19998;-90
2024/02/27 02:26:02;;;;;;;8.68;4.60;;;;;;;;;;6156074;23;20219;-90
2024/02/27 02:28:27;;;;;;;8.40;4.63;;;;;;;;;;6155178;23;20001;-90
2024/02/27 02:30:52;;;;;;;11.25;4.95;;;;;;;;;;6127611;23;20441;-90
2024/02/27 02:33:18;;;;;;;11.20;5.28;;;;;;;;;;6155384;23;20088;-91
2024/02/27 02:35:44;;;;;;;7.72;4.90;;;;;;;;;;6155658;23;20008;-90
2024/02/27 02:38:09;;;;;;;9.25;4.90;;;;;;;;;;6155823;23;19997;-91
2024/02/27 02:40:34;;;;;;;11.63;5.25;;;;;;;;;;6129451;23;19998;-90
2024/02/27 02:42:59;;;;;;;10.00;5.97;;;;;;;;;;6155471;23;20001;-90
2024/02/27 02:45:24;;;;;;;10.50;5.50;;;;;;;;;;6164163;23;20227;-91
2024/02/27 02:47:50;;;;;;;9.57;5.37;;;;;;;;;;6185388;23;20223;-91
2024/02/27 02:50:15;;;;;;;7.70;4.75;;;;;;;;;;6184528;23;20258;-91
2024/02/27 02:52:40;;;;;;;6.35;4.53;;;;;;;;;;6185533;23;19993;-90
2024/02/27 02:55:07;;;;;;;6.43;4.80;;;;;;;;;;6185365;23;20316;-90
2024/02/27 02:57:32;;;;;;;7.10;4.88;;;;;;;;;;6158756;23;20508;-90
2024/02/27 02:59:57;;;;;;;9.02;4.90;;;;;;;;;;6184797;23;20031;-92
2024/02/27 03:02:23;;;;;;;9.77;5.38;;;;;;;;;;6158478;23;20427;-91
2024/02/27 03:04:48;;;;;;;7.60;5.50;;;;;;;;;;6184843;23;20070;-91
2024/02/27 03:07:13;;;;;;;12.68;5.65;;;;;;;;;;6185400;23;20413;-91
2024/02/27 03:09:39;;;;;;;7.87;5.20;;;;;;;;;;6158683;23;20008;-91
2024/02/27 03:12:04;;;;;;;15.50;7.45;;;;;;;;;;6184917;23;20231;-90
2024/02/27 03:14:29;;;;;;;7.60;5.53;;;;;;;;;;6185639;23;20000;-90
2024/02/27 03:16:54;;;;;;;8.88;6.28;;;;;;;;;;6185236;23;20341;-91
2024/02/27 03:19:20;;;;;;;7.82;5.70;;;;;;;;;;6158625;23;20031;-91
2024/02/27 03:21:45;;;;;;;9.90;6.00;;;;;;;;;;6185409;23;19997;-91
2024/02/27 03:24:10;;;;;;;7.57;5.90;;;;;;;;;;6185363;23;19989;-91
2024/02/27 03:26:36;;;;;;;5.93;4.80;;;;;;;;;;6185077;23;20001;-91
2024/02/27 03:29:01;;;;;;;16.00;5.80;;;;;;;;;;6184770;23;20055;-90
2024/02/27 03:31:27;;;;;;;10.43;6.20;;;;;;;;;;6185096;23;20327;-90
2024/02/27 03:33:52;;;;;;;9.53;6.43;;;;;;;;;;6158786;23;19997;-90
2024/02/27 03:36:17;;;;;;;8.17;5.77;;;;;;;;;;6185083;23;20215;-92
2024/02/27 03:38:42;;;;;;;10.05;5.72;;;;;;;;;;6184528;23;20559;-91
2024/02/27 03:41:14;;;;;;;9.40;6.15;;;;;;;;;;6185124;23;20024;-92
2024/02/27 03:43:42;;;;;;;9.90;6.22;;;;;;;;;;6185526;23;19997;-92
2024/02/27 03:46:08;;;;;;;9.40;6.43;;;;;;;;;;6170971;23;20453;-92
2024/02/27 03:48:33;;;;;;;15.48;7.30;;;;;;;;;;6183147;23;20025;-92
2024/02/27 03:50:58;;;;;;;11.88;6.28;;;;;;;;;;6183348;23;20036;-93
2024/02/27 03:53:24;;;;;;;13.23;7.15;;;;;;;;;;6183454;23;20008;-92
2024/02/27 03:55:49;;;;;;;14.65;6.72;;;;;;;;;;6184985;23;20001;-91
2024/02/27 03:58:14;;;;;;;12.52;7.10;;;;;;;;;;6183621;23;20424;-92
2024/02/27 04:00:39;;;;;;;9.57;6.88;;;;;;;;;;6183301;23;20092;-91
2024/02/27 04:03:04;;;;;;;13.30;6.80;;;;;;;;;;6185385;23;20320;-91
2024/02/27 04:05:30;;;;;;;12.15;6.38;;;;;;;;;;6183666;23;20748;-91
2024/02/27 04:07:55;;;;;;;13.23;6.80;;;;;;;;;;6185258;23;20068;-91
2024/02/27 04:10:20;;;;;;;12.05;6.72;;;;;;;;;;6184516;23;20068;-92
2024/02/27 04:12:45;;;;;;;13.23;8.55;;;;;;;;;;6183935;23;19993;-91
2024/02/27 04:15:11;;;;;;;12.70;7.53;;;;;;;;;;6185528;23;20076;-92
2024/02/27 04:17:36;;;;;;;10.25;7.22;;;;;;;;;;6184291;23;20324;-91
2024/02/27 04:20:01;;;;;;;10.68;6.28;;;;;;;;;;6183171;23;20001;-91
2024/02/27 04:22:26;;;;;;;8.88;6.22;;;;;;;;;;6185308;23;19993;-91
2024/02/27 04:24:53;;;;;;;11.32;6.95;;;;;;;;;;6185018;23;20029;-92
2024/02/27 04:27:18;;;;;;;9.27;7.07;;;;;;;;;;6184928;23;20020;-91
2024/02/27 04:29:43;;;;;;;11.50;6.70;;;;;;;;;;6184369;23;20017;-91
2024/02/27 04:32:10;;;;;;;10.43;6.83;;;;;;;;;;6183814;23;20227;-91
2024/02/27 04:34:35;;;;;;;11.45;6.75;;;;;;;;;;6185203;23;20222;-92
2024/02/27 04:37:01;;;;;;;13.13;8.52;;;;;;;;;;6185322;23;19997;-92
2024/02/27 04:39:26;;;;;;;13.95;7.95;;;;;;;;;;6182948;23;20490;-91
2024/02/27 04:41:51;;;;;;;14.43;6.77;;;;;;;;;;6184718;23;19993;-91
2024/02/27 04:44:18;;;;;;;11.82;6.40;;;;;;;;;;6184929;23;20215;-91
2024/02/27 04:46:43;;;;;;;9.88;6.03;;;;;;;;;;6185504;23;20008;-92
2024/02/27 04:49:09;;;;;;;8.57;5.95;;;;;;;;;;6158348;23;20005;-91
2024/02/27 04:51:34;;;;;;;19.75;6.28;;;;;;;;;;6185468;23;19997;-93
2024/02/27 04:53:59;;;;;;;10.68;6.65;;;;;;;;;;6185189;23;19999;-92
2024/02/27 04:56:24;;;;;;;11.73;6.97;;;;;;;;;;6157571;23;20005;-91
2024/02/27 04:58:50;;;;;;;9.40;6.72;;;;;;;;;;6157771;23;19997;-91
2024/02/27 05:01:15;;;;;;;12.07;7.75;;;;;;;;;;6185801;23;20004;-91
2024/02/27 05:03:40;;;;;;;9.07;6.57;;;;;;;;;;6184773;23;20419;-91
2024/02/27 05:06:05;;;;;;;12.07;6.65;;;;;;;;;;6158639;23;20383;-90
2024/02/27 05:08:31;;;;;;;13.27;7.25;;;;;;;;;;6184560;23;20016;-91
2024/02/27 05:10:56;;;;;;;10.77;6.70;;;;;;;;;;6184711;23;20009;-91
2024/02/27 05:13:22;;;;;;;13.30;6.80;;;;;;;;;;6158674;23;20004;-91
2024/02/27 05:15:47;;;;;;;11.98;7.53;;;;;;;;;;6184814;23;20012;-91
2024/02/27 05:18:12;;;;;;;13.82;8.02;;;;;;;;;;6158189;23;20001;-91
2024/02/27 05:20:37;;;;;;;15.98;8.10;;;;;;;;;;6185281;23;20076;-92
2024/02/27 05:23:03;;;;;;;14.95;8.05;;;;;;;;;;6185095;23;20416;-91
2024/02/27 05:25:28;;;;;;;13.70;7.72;;;;;;;;;;6158095;23;20327;-91
2024/02/27 05:27:53;;;;;;;12.20;7.43;;;;;;;;;;6156950;23;20012;-91
2024/02/27 05:30:19;;;;;;;17.88;9.02;;;;;;;;;;6186275;23;20009;-91
2024/02/27 05:32:44;;;;;;;16.33;8.38;;;;;;;;;;6186004;23;20059;-91
2024/02/27 05:35:09;;;;;;;16.55;9.77;;;;;;;;;;6159934;23;20001;-90
2024/02/27 05:37:34;;;;;;;15.38;8.20;;;;;;;;;;6159418;23;19993;-91
2024/02/27 05:40:00;;;;;;;14.00;8.68;;;;;;;;;;6186283;23;20001;-91
2024/02/27 05:42:25;;;;;;;13.73;7.60;;;;;;;;;;6186268;23;19993;-92
2024/02/27 05:44:50;;;;;;;11.95;7.82;;;;;;;;;;6186104;23;20000;-90
2024/02/27 05:47:15;;;;;;;11.95;6.93;;;;;;;;;;6185807;23;20004;-90
2024/02/27 05:49:41;;;;;;;11.23;7.40;;;;;;;;;;6185932;23;20044;-91
2024/02/27 05:52:06;;;;;;;13.25;7.53;;;;;;;;;;6186238;23;20001;-92
2024/02/27 05:54:32;;;;;;;11.23;7.65;;;;;;;;;;6186178;23;20419;-91
2024/02/27 05:56:57;;;;;;;10.32;6.82;;;;;;;;;;6186363;23;20000;-92
2024/02/27 05:59:22;;;;;;;14.00;7.50;;;;;;;;;;6185647;23;20408;-91
2024/02/27 06:01:47;;;;;;;13.55;7.15;;;;;;;;;;6186108;23;19993;-93
2024/02/27 06:04:13;;;;;;;13.02;7.75;;;;;;;;;;6186168;23;20017;-91
2024/02/27 06:06:38;;;;;;;12.63;7.90;;;;;;;;;;6186046;23;19997;-91
2024/02/27 06:09:07;;;;;;;13.87;8.80;;;;;;;;;;6184900;23;20005;-91
2024/02/27 06:11:33;;;;;;;13.98;7.57;;;;;;;;;;6159639;23;20243;-91
2024/02/27 06:13:59;;;;;;;12.18;8.70;;;;;;;;;;6186059;23;20029;-91
2024/02/27 06:16:24;;;;;;;12.07;8.07;;;;;;;;;;6186113;23;20001;-92
2024/02/27 06:18:50;;;;;;;14.60;8.20;;;;;;;;;;6185664;23;20004;-91
2024/02/27 06:23:58;;;;;;;10.82;7.15;;;;;;;;;;6185934;23;20008;-91
2024/02/27 06:26:25;;;;;;;13.85;7.68;;;;;;;;;;6185805;23;20001;-91
2024/02/27 06:28:50;;;;;;;11.93;7.80;;;;;;;;;;6158893;23;20000;-91
2024/02/27 06:31:16;;;;;;;12.43;7.15;;;;;;;;;;6185636;23;20008;-91
2024/02/27 06:33:41;;;;;;;10.85;7.75;;;;;;;;;;6185751;23;19998;-91
2024/02/27 06:36:06;;;;;;;13.95;7.65;;;;;;;;;;6185536;23;19993;-91
2024/02/27 06:38:31;;;;;;;11.85;7.85;;;;;;;;;;6158475;23;20000;-91
2024/02/27 06:40:56;;;;;;;16.85;8.13;;;;;;;;;;6184723;23;20007;-91
2024/02/27 06:43:22;;;;;;;17.70;8.43;;;;;;;;;;6185568;23;19993;-91
2024/02/27 06:45:47;;;;;;;14.32;8.40;;;;;;;;;;6185364;23;20238;-91
2024/02/27 06:48:14;;;;;;;15.30;8.00;;;;;;;;;;6185423;23;20017;-91
2024/02/27 06:50:39;;;;;;;14.77;8.30;;;;;;;;;;6185146;23;20340;-91
2024/02/27 06:53:06;;;;;;;15.50;8.20;;;;;;;;;;6185307;23;20071;-91
2024/02/27 06:55:31;;;;;;;13.48;8.90;;;;;;;;;;6185453;23;20001;-91
2024/02/27 06:57:57;;;;;;;14.60;8.18;;;;;;;;;;6184426;23;20438;-92
2024/02/27 07:00:22;;;;;;;14.20;8.82;;;;;;;;;;6185414;23;20007;-91
2024/02/27 07:02:48;;;;;;;12.77;8.82;;;;;;;;;;6185048;23;20316;-91
2024/02/27 07:05:13;;;;;;;14.43;7.65;;;;;;;;;;6185094;23;19993;-90
2024/02/27 07:07:38;;;;;;;16.00;8.63;;;;;;;;;;6185015;23;19993;-90
2024/02/27 07:10:04;;;;;;;18.65;9.05;;;;;;;;;;6184701;23;20426;-92
2024/02/27 07:12:32;;;;;;;15.65;9.75;;;;;;;;;;6185343;23;20001;-92
2024/02/27 07:14:57;;;;;;;17.65;7.50;;;;;;;;;;6158725;23;20059;-91
2024/02/27 07:17:23;;;;;;;15.57;8.75;;;;;;;;;;6183410;23;19993;-91
2024/02/27 07:19:48;;;;;;;18.23;9.48;;;;;;;;;;6157965;23;19997;-90
2024/02/27 07:22:13;;;;;;;14.07;9.20;;;;;;;;;;6185171;23;19993;-92
2024/02/27 07:24:38;;;;;;;16.95;9.13;;;;;;;;;;6185325;23;20001;-92
2024/02/27 07:27:04;;;;;;;15.52;9.88;;;;;;;;;;6158509;23;20005;-89
2024/02/27 07:29:29;;;;;;;14.18;9.13;;;;;;;;;;6184228;23;20001;-91
2024/02/27 07:31:54;;;;;;;14.27;10.07;;;;;;;;;;6184672;23;20363;-92
2024/02/27 07:34:21;;;;;;;18.42;9.98;;;;;;;;;;6158692;23;19997;-90
2024/02/27 07:36:46;;;;;;;14.88;9.90;;;;;;;;;;6158028;23;20001;-90
2024/02/27 07:39:12;;;;;;;19.98;9.18;;;;;;;;;;6156671;23;20332;-90
2024/02/27 07:41:38;;;;;;;14.75;8.88;;;;;;;;;;6149117;23;20001;-93
2024/02/27 07:44:03;;;;;;;17.00;8.65;;;;;;;;;;6150204;23;20005;-90
2024/02/27 07:46:30;;;;;;;15.90;9.05;;;;;;;;;;6176414;23;20016;-93
2024/02/27 07:48:55;;;;;;;16.45;9.48;;;;;;;;;;6179201;23;20001;-91
2024/02/27 07:51:27;;;;;;;16.90;10.27;;;;;;;;;;6151750;23;20674;-91
2024/02/27 07:53:53;;;;;;;14.32;8.32;;;;;;;;;;6179047;23;20076;-91
2024/02/27 07:56:18;;;;;;;16.30;9.80;;;;;;;;;;6152269;23;20020;-91
2024/02/27 07:58:43;;;;;;;15.65;9.48;;;;;;;;;;6178915;23;20005;-92
2024/02/27 08:01:08;;;;;;;15.30;9.73;;;;;;;;;;6177628;23;19997;-91
2024/02/27 08:03:35;;;;;;;15.13;10.07;;;;;;;;;;6178324;23;20008;-91
2024/02/27 08:06:00;;;;;;;15.88;10.32;;;;;;;;;;6178865;23;20005;-92
2024/02/27 08:08:25;;;;;;;17.98;9.98;;;;;;;;;;6154546;23;20031;-92
2024/02/27 08:10:51;;;;;;;16.92;10.48;;;;;;;;;;6179341;23;20052;-93
2024/02/27 08:13:17;;;;;;;15.82;9.57;;;;;;;;;;6150346;23;20001;-92
2024/02/27 08:15:44;;;;;;;15.00;9.45;;;;;;;;;;6148090;23;20108;-91
2024/02/27 08:18:09;;;;;;;19.17;11.55;;;;;;;;;;6175526;23;20001;-91
2024/02/27 08:20:35;;;;;;;19.15;11.57;;;;;;;;;;6174010;23;20068;-91
2024/02/27 08:23:00;;;;;;;21.05;12.65;;;;;;;;;;6177437;23;20008;-90
2024/02/27 08:25:25;;;;;;;22.10;11.90;;;;;;;;;;6174981;23;20328;-91
2024/02/27 08:27:50;;;;;;;17.52;11.13;;;;;;;;;;6176226;23;20001;-91
2024/02/27 08:30:16;;;;;;;21.48;11.98;;;;;;;;;;6174995;23;20009;-90
2024/02/27 08:32:41;;;;;;;17.35;11.52;;;;;;;;;;6175183;23;20004;-90
2024/02/27 08:35:06;;;;;;;16.30;10.53;;;;;;;;;;6176658;23;19997;-92
2024/02/27 08:37:32;;;;;;;15.80;11.18;;;;;;;;;;6149105;23;20227;-90
2024/02/27 08:39:58;;;;;;;19.92;11.20;;;;;;;;;;6175760;23;20011;-92
2024/02/27 08:42:23;;;;;;;20.08;11.57;;;;;;;;;;6149405;23;20005;-91
2024/02/27 08:44:49;;;;;;;23.00;11.83;;;;;;;;;;6149354;23;20042;-90
2024/02/27 08:47:14;;;;;;;16.10;11.00;;;;;;;;;;6177368;23;20258;-92
2024/02/27 08:49:40;;;;;;;20.10;11.52;;;;;;;;;;6176487;23;20001;-91
2024/02/27 08:52:05;;;;;;;15.82;11.35;;;;;;;;;;6149789;23;19997;-90
2024/02/27 08:54:30;;;;;;;17.73;11.53;;;;;;;;;;6176918;23;20004;-91
2024/02/27 08:56:56;;;;;;;15.63;10.75;;;;;;;;;;6177068;23;20246;-91
2024/02/27 08:59:22;;;;;;;19.13;12.67;;;;;;;;;;6177307;23;20083;-95
2024/02/27 09:01:47;;;;;;;18.40;11.57;;;;;;;;;;6149551;23;20235;-91
2024/02/27 09:04:13;;;;;;;17.52;11.25;;;;;;;;;;6175768;23;20004;-91
2024/02/27 09:06:41;;;;;;;20.00;11.52;;;;;;;;;;6179627;23;20004;-91
2024/02/27 09:09:07;;;;;;;17.95;11.30;;;;;;;;;;6180375;23;20479;-91
2024/02/27 09:11:33;;;;;;;16.17;10.82;;;;;;;;;;6178691;23;19997;-91
2024/02/27 09:13:58;;;;;;;21.53;12.93;;;;;;;;;;6179172;23;20000;-91
2024/02/27 09:16:23;;;;;;;21.37;11.27;;;;;;;;;;6181531;23;20230;-91
2024/02/27 09:18:48;;;;;;;18.03;10.73;;;;;;;;;;6155777;23;20215;-93
2024/02/27 09:21:14;;;;;;;19.80;11.55;;;;;;;;;;6154861;23;20250;-93
2024/02/27 09:23:39;;;;;;;17.55;10.93;;;;;;;;;;6152376;23;20069;-91
2024/02/27 09:26:04;;;;;;;16.70;10.97;;;;;;;;;;6180853;23;20007;-93
2024/02/27 09:28:29;;;;;;;16.58;10.75;;;;;;;;;;6149888;23;20245;-91
2024/02/27 09:30:54;;;;;;;12.85;9.43;;;;;;;;;;6178418;23;20016;-92
2024/02/27 09:33:20;;;;;;;16.58;10.00;;;;;;;;;;6153395;23;20009;-93
2024/02/27 09:35:45;;;;;;;14.95;9.82;;;;;;;;;;6152489;23;20005;-91
2024/02/27 09:38:10;;;;;;;16.80;10.63;;;;;;;;;;6153914;23;20088;-91
2024/02/27 09:40:36;;;;;;;18.00;11.57;;;;;;;;;;6181341;23;20068;-90
2024/02/27 09:43:01;;;;;;;18.17;10.63;;;;;;;;;;6182551;23;20001;-91
2024/02/27 09:45:26;;;;;;;15.18;10.60;;;;;;;;;;6182136;23;20384;-91
2024/02/27 09:47:52;;;;;;;20.90;12.35;;;;;;;;;;6155968;23;20428;-91
2024/02/27 09:50:19;;;;;;;15.25;9.95;;;;;;;;;;6152988;23;20040;-92
2024/02/27 09:52:47;;;;;;;14.40;9.73;;;;;;;;;;6182641;23;19997;-92
2024/02/27 09:55:12;;;;;;;15.80;10.55;;;;;;;;;;6182916;23;20064;-92
2024/02/27 09:57:38;;;;;;;16.95;9.75;;;;;;;;;;6183090;23;20352;-93
2024/02/27 10:00:04;;;;;;;13.32;8.88;;;;;;;;;;6182288;23;20008;-90
2024/02/27 10:02:29;;;;;;;15.88;8.68;;;;;;;;;;6182169;23;20012;-91
2024/02/27 10:04:56;;;;;;;18.98;9.40;;;;;;;;;;6182481;23;20004;-92
2024/02/27 10:07:21;;;;;;;11.57;7.45;;;;;;;;;;6183243;23;20024;-92
2024/02/27 10:09:47;;;;;;;15.07;8.57;;;;;;;;;;6182721;23;20432;-92
2024/02/27 10:12:13;;;;;;;14.30;8.38;;;;;;;;;;6181371;23;20004;-92
2024/02/27 10:14:39;;;;;;;13.40;8.63;;;;;;;;;;6183268;23;20388;-92
2024/02/27 10:17:04;;;;;;;17.58;7.90;;;;;;;;;;6158235;23;20485;-92
2024/02/27 10:19:30;;;;;;;13.32;7.97;;;;;;;;;;6185279;23;20471;-92
2024/02/27 10:21:56;;;;;;;13.85;7.40;;;;;;;;;;6157855;23;20434;-92
2024/02/27 10:24:21;;;;;;;14.40;8.25;;;;;;;;;;6158613;23;20072;-93
2024/02/27 10:26:50;;;;;;;12.38;8.75;;;;;;;;;;6184544;23;19997;-93
2024/02/27 10:29:16;;;;;;;18.25;9.32;;;;;;;;;;6184756;23;20009;-92
2024/02/27 10:31:42;;;;;;;17.55;9.20;;;;;;;;;;6183599;23;19997;-91
2024/02/27 10:34:08;;;;;;;16.13;8.13;;;;;;;;;;6156659;23;20012;-92
2024/02/27 10:36:33;;;;;;;14.82;8.55;;;;;;;;;;6182295;23;20001;-91
2024/02/27 10:39:11;;;;;;;16.20;8.93;;;;;;;;;;6184465;23;20000;-92
2024/02/27 10:41:39;;;;;;;17.73;10.63;;;;;;;;;;6157918;23;20416;-92
2024/02/27 10:44:07;;;;;;;12.70;9.13;;;;;;;;;;6158645;23;20001;-91
2024/02/27 10:46:34;;;;;;;19.02;8.15;;;;;;;;;;6175325;23;20051;-92
2024/02/27 10:48:59;;;;;;;16.30;7.72;;;;;;;;;;6158370;23;19997;-92
2024/02/27 10:51:24;;;;;;;17.60;7.65;;;;;;;;;;6184323;23;20015;-92
2024/02/27 10:53:52;;;;;;;16.58;7.30;;;;;;;;;;6184509;23;20028;-92
2024/02/27 10:56:18;;;;;;;10.90;7.88;;;;;;;;;;6159166;23;20331;-92
2024/02/27 10:58:44;;;;;;;17.38;8.05;;;;;;;;;;6185140;23;20076;-92
2024/02/27 11:01:10;;;;;;;13.27;7.22;;;;;;;;;;6158005;23;20372;-93
2024/02/27 11:03:40;;;;;;;13.27;7.82;;;;;;;;;;6158568;23;20005;-93
2024/02/27 11:06:07;;;;;;;13.13;8.35;;;;;;;;;;6184239;23;20458;-92
2024/02/27 11:08:33;;;;;;;13.88;8.02;;;;;;;;;;6184514;23;20000;-93
2024/02/27 11:10:58;;;;;;;9.93;6.53;;;;;;;;;;6157468;23;20009;-93
2024/02/27 11:13:24;;;;;;;10.60;7.18;;;;;;;;;;6184230;23;20007;-93
2024/02/27 11:15:51;;;;;;;10.43;5.78;;;;;;;;;;6184319;23;20001;-93
2024/02/27 11:18:18;;;;;;;9.43;6.18;;;;;;;;;;6184552;23;20001;-93
2024/02/27 11:20:44;;;;;;;10.63;5.63;;;;;;;;;;6184071;23;20309;-93
2024/02/27 11:23:09;;;;;;;7.45;4.90;;;;;;;;;;6158509;23;20028;-94
2024/02/27 11:25:34;;;;;;;5.40;4.43;;;;;;;;;;6184042;23;20047;-93
2024/02/27 11:28:02;;;;;;;9.77;5.22;;;;;;;;;;6183663;23;19989;-93
2024/02/27 11:30:28;;;;;;;13.30;5.38;;;;;;;;;;6184511;23;20423;-93
2024/02/27 11:32:55;;;;;;;8.38;5.78;;;;;;;;;;6156577;23;19998;-92
2024/02/27 11:35:20;;;;;;;10.02;4.70;;;;;;;;;;6181189;23;20009;-92
2024/02/27 11:37:47;;;;;;;11.30;5.43;;;;;;;;;;6182692;23;20412;-90
2024/02/27 11:40:13;;;;;;;11.90;5.70;;;;;;;;;;6183860;23;19997;-92
2024/02/27 11:42:42;;;;;;;9.15;6.25;;;;;;;;;;6182551;23;20071;-92
2024/02/27 11:45:14;;;;;;;12.90;6.47;;;;;;;;;;6182454;23;20044;-91
2024/02/27 11:47:41;;;;;;;9.07;6.38;;;;;;;;;;6181838;23;19997;-92
2024/02/27 11:50:10;;;;;;;11.13;6.78;;;;;;;;;;6155726;23;20036;-93
2024/02/27 11:52:35;;;;;;;11.43;6.78;;;;;;;;;;6183401;23;20008;-93
2024/02/27 11:55:07;;;;;;;12.25;6.75;;;;;;;;;;6157900;23;20027;-92
2024/02/27 11:57:36;;;;;;;18.70;7.68;;;;;;;;;;6157054;23;20025;-92
2024/02/27 12:00:12;;;;;;;11.02;6.60;;;;;;;;;;6183170;23;20001;-93
2024/02/27 12:02:37;;;;;;;12.30;6.30;;;;;;;;;;6183312;23;20043;-92
2024/02/27 12:05:06;;;;;;;13.02;6.60;;;;;;;;;;6182416;23;20439;-92
2024/02/27 12:07:34;;;;;;;10.85;5.63;;;;;;;;;;6183621;23;19997;-91
2024/02/27 12:10:10;;;;;;;5.60;4.07;;;;;;;;;;6182980;23;20019;-93
2024/02/27 12:12:39;;;;;;;11.15;4.30;;;;;;;;;;6155967;23;20004;-92
2024/02/27 12:15:05;;;;;;;6.35;4.47;;;;;;;;;;6182060;23;19997;-91
2024/02/27 12:17:31;;;;;;;8.25;3.90;;;;;;;;;;6156801;23;20005;-93
2024/02/27 12:19:57;;;;;;;6.57;3.38;;;;;;;;;;6155141;23;20032;-91
2024/02/27 12:22:22;;;;;;;6.03;3.17;;;;;;;;;;6181747;23;19997;-93
2024/02/27 12:24:47;;;;;;;4.43;3.30;;;;;;;;;;6181973;23;20416;-92
2024/02/27 12:27:13;;;;;;;6.32;2.65;;;;;;;;;;6184090;23;19989;-92
2024/02/27 12:29:39;;;;;;;5.38;2.85;;;;;;;;;;6183295;23;20013;-91
2024/02/27 12:32:04;;;;;;;5.03;2.92;;;;;;;;;;6184524;23;19993;-92
2024/02/27 12:34:30;;;;;;;5.82;3.20;;;;;;;;;;6156884;23;20008;-94
2024/02/27 12:36:56;;;;;;;5.57;2.92;;;;;;;;;;6185909;23;19993;-92
2024/02/27 12:39:23;;;;;;;7.25;2.80;;;;;;;;;;6184274;23;20060;-94
2024/02/27 12:41:48;;;;;;;5.10;2.58;;;;;;;;;;6158480;23;20084;-91
2024/02/27 12:44:13;;;;;;;4.03;2.13;;;;;;;;;;6184709;23;20409;-94
2024/02/27 12:46:39;;;;;;;5.53;2.40;;;;;;;;;;6176966;23;20013;-94
2024/02/27 12:49:04;;;;;;;4.78;2.53;;;;;;;;;;6182254;23;20001;-94
2024/02/27 12:51:29;;;;;;;7.70;4.35;;;;;;;;;;6182962;23;20009;-93
2024/02/27 12:53:55;;;;;;;4.63;2.63;;;;;;;;;;6182959;23;20431;-92
2024/02/27 12:56:20;;;;;;;5.85;2.50;;;;;;;;;;6177199;23;20020;-93
2024/02/27 12:58:48;;;;;;;7.90;3.00;;;;;;;;;;6180697;23;20424;-95
2024/02/27 13:01:14;;;;;;;6.63;2.88;;;;;;;;;;6177424;23;20429;-94
2024/02/27 13:03:39;;;;;;;6.30;2.80;;;;;;;;;;6175131;23;20024;-93
2024/02/27 13:06:04;;;;;;;4.60;2.53;;;;;;;;;;6175496;23;20083;-95
2024/02/27 13:08:30;;;;;;;6.72;3.00;;;;;;;;;;6176713;23;20009;-94
2024/02/27 13:10:56;;;;;;;4.25;2.63;;;;;;;;;;6175712;23;20009;-93
2024/02/27 13:13:21;;;;;;;6.13;2.90;;;;;;;;;;6175715;23;20047;-95
2024/02/27 13:15:48;;;;;;;5.50;2.72;;;;;;;;;;6174245;23;20009;-93
2024/02/27 13:18:14;;;;;;;4.60;2.70;;;;;;;;;;6177069;23;19997;-93
2024/02/27 13:20:39;;;;;;;4.25;2.60;;;;;;;;;;6175520;23;20028;-93
2024/02/27 13:23:05;;;;;;;3.70;2.35;;;;;;;;;;6175751;23;20012;-91
2024/02/27 13:25:30;;;;;;;7.82;2.50;;;;;;;;;;6177535;23;20001;-92
2024/02/27 13:27:55;;;;;;;5.20;2.53;;;;;;;;;;6174077;23;19997;-92
2024/02/27 13:30:21;;;;;;;7.05;2.63;;;;;;;;;;6176295;23;20005;-92
2024/02/27 13:32:46;;;;;;;6.35;2.47;;;;;;;;;;6176513;23;19997;-93
2024/02/27 13:35:11;;;;;;;5.25;2.15;;;;;;;;;;6175286;23;20036;-93
2024/02/27 13:37:37;;;;;;;6.13;2.58;;;;;;;;;;6177100;23;20051;-94
2024/02/27 13:40:03;;;;;;;4.65;2.10;;;;;;;;;;6172518;23;20013;-93
2024/02/27 13:42:28;;;;;;;4.57;1.95;;;;;;;;;;6177177;23;19997;-93
2024/02/27 13:44:54;;;;;;;3.95;2.17;;;;;;;;;;6175643;23;20004;-92
2024/02/27 13:47:19;;;;;;;3.95;1.90;;;;;;;;;;6150156;23;20008;-93
2024/02/27 13:49:44;;;;;;;3.42;1.92;;;;;;;;;;6150826;23;20476;-93
2024/02/27 13:52:10;;;;;;;10.05;2.80;;;;;;;;;;6178638;23;20067;-93
2024/02/27 13:54:35;;;;;;;4.18;1.88;;;;;;;;;;6152588;23;20167;-92
2024/02/27 13:57:00;;;;;;;5.60;2.38;;;;;;;;;;6178417;23;19997;-92
2024/02/27 13:59:26;;;;;;;4.72;2.28;;;;;;;;;;6152980;23;20051;-93
2024/02/27 14:01:51;;;;;;;4.38;2.17;;;;;;;;;;6150895;23;20430;-93
2024/02/27 14:04:16;;;;;;;4.95;2.05;;;;;;;;;;6177091;23;19989;-93
2024/02/27 14:06:42;;;;;;;6.22;1.90;;;;;;;;;;6178400;23;20001;-93
2024/02/27 14:09:08;;;;;;;2.90;1.40;;;;;;;;;;6152421;23;20300;-93
2024/02/27 14:11:33;;;;;;;3.63;1.40;;;;;;;;;;6152753;23;20719;-92
2024/02/27 14:13:58;;;;;;;6.00;1.58;;;;;;;;;;6178065;23;19997;-93
2024/02/27 14:16:26;;;;;;;3.72;1.40;;;;;;;;;;6151503;23;20008;-93
2024/02/27 14:18:51;;;;;;;9.35;1.80;;;;;;;;;;6151800;23;20048;-93
2024/02/27 14:21:19;;;;;;;3.10;1.30;;;;;;;;;;6151922;23;20005;-92
2024/02/27 14:23:44;;;;;;;4.68;1.73;;;;;;;;;;6151860;23;20486;-93
2024/02/27 14:26:09;;;;;;;5.43;1.70;;;;;;;;;;6152621;23;20000;-93